Time;durP1;ratioP1;P1;durP2;ratioP2;P2;SDS_P1;SDS_P2;PMS_P1;PMS_P2;Temp;Humidity;BMP_temperature;BMP_pressure;BME280_temperature;BME280_humidity;BME280_pressure;Samples;Min_cycle;Max_cycle;Signal;HPM_P1;HPM_P2
2023/07/02 00:01:48;;;;;;;7.18;4.95;;;19.80;99.90;;;;;;4980855;28;20098;-73
2023/07/02 00:04:20;;;;;;;9.02;5.60;;;19.80;99.90;;;;;;4975169;28;20033;-72
2023/07/02 00:06:50;;;;;;;6.93;4.85;;;19.80;99.90;;;;;;4984807;28;20110;-72
2023/07/02 00:09:16;;;;;;;5.97;4.20;;;19.80;99.90;;;;;;4987861;28;20034;-73
2023/07/02 00:11:45;;;;;;;7.95;5.00;;;19.80;99.90;;;;;;4994313;28;20488;-73
2023/07/02 00:14:11;;;;;;;8.52;5.13;;;19.80;99.90;;;;;;4984839;28;20022;-72
2023/07/02 00:16:40;;;;;;;6.95;4.78;;;19.70;99.90;;;;;;4988669;28;20113;-73
2023/07/02 00:19:06;;;;;;;9.60;5.03;;;19.80;99.90;;;;;;4989231;28;20027;-73
2023/07/02 00:21:33;;;;;;;6.13;4.55;;;19.80;99.90;;;;;;4987227;28;20054;-72
2023/07/02 00:23:59;;;;;;;6.47;4.32;;;19.80;99.90;;;;;;4987039;28;20034;-73
2023/07/02 00:26:26;;;;;;;7.40;4.82;;;19.70;99.90;;;;;;4987068;28;20023;-73
2023/07/02 00:28:54;;;;;;;7.28;5.05;;;19.70;99.90;;;;;;4981926;28;20054;-72
2023/07/02 00:31:20;;;;;;;7.70;4.93;;;19.70;99.90;;;;;;4980166;28;20034;-73
2023/07/02 00:33:45;;;;;;;12.05;5.22;;;19.70;99.90;;;;;;4986811;28;20049;-72
2023/07/02 00:36:14;;;;;;;10.77;5.32;;;19.70;99.90;;;;;;4985496;28;20038;-73
2023/07/02 00:38:45;;;;;;;8.68;5.22;;;19.70;99.90;;;;;;4983866;28;20061;-73
2023/07/02 00:41:11;;;;;;;7.93;5.95;;;19.60;99.90;;;;;;4982375;28;20023;-73
2023/07/02 00:43:43;;;;;;;8.52;4.50;;;19.60;99.90;;;;;;4982315;28;20117;-73
2023/07/02 00:46:19;;;;;;;6.40;4.78;;;19.60;99.90;;;;;;4982690;28;20042;-73
2023/07/02 00:48:55;;;;;;;7.00;5.00;;;19.70;99.90;;;;;;4987639;28;20420;-73
2023/07/02 00:51:25;;;;;;;6.15;5.03;;;19.60;99.90;;;;;;4989505;28;20070;-73
2023/07/02 00:53:54;;;;;;;12.80;5.75;;;19.70;99.90;;;;;;4987019;28;20366;-73
2023/07/02 00:56:20;;;;;;;6.82;4.60;;;19.60;99.90;;;;;;4988973;28;20022;-73
2023/07/02 00:58:50;;;;;;;6.30;4.88;;;19.70;99.90;;;;;;4982287;28;20097;-73
2023/07/02 01:01:25;;;;;;;6.63;4.88;;;19.70;99.90;;;;;;4988096;28;20034;-72
2023/07/02 01:04:09;;;;;;;8.20;6.22;;;19.70;99.90;;;;;;4986468;28;20026;-73
2023/07/02 01:06:35;;;;;;;;;;;19.70;99.90;;;;;;4988582;28;20041;-72
2023/07/02 01:09:03;;;;;;;7.70;5.07;;;19.80;99.90;;;;;;4985793;28;21957;-72
2023/07/02 01:11:43;;;;;;;8.07;5.80;;;19.80;99.90;;;;;;4986924;28;20038;-73
2023/07/02 01:14:22;;;;;;;8.77;5.45;;;19.80;99.90;;;;;;4984629;28;20674;-73
2023/07/02 01:16:50;;;;;;;7.65;5.40;;;19.90;99.90;;;;;;4984255;28;20100;-73
2023/07/02 01:19:40;;;;;;;7.25;5.20;;;19.90;99.90;;;;;;4988830;28;20473;-73
2023/07/02 01:22:07;;;;;;;6.13;4.35;;;19.90;99.90;;;;;;4986030;28;20026;-73
2023/07/02 01:24:33;;;;;;;9.18;5.93;;;19.90;99.90;;;;;;4984867;28;20053;-72
2023/07/02 01:27:02;;;;;;;12.57;5.20;;;19.90;99.90;;;;;;4985460;28;20109;-73
2023/07/02 01:29:29;;;;;;;8.45;4.93;;;19.80;99.90;;;;;;4984604;28;20042;-72
2023/07/02 01:31:56;;;;;;;6.60;4.78;;;19.80;99.90;;;;;;4985185;28;20031;-73
2023/07/02 01:34:21;;;;;;;10.32;5.40;;;19.80;99.90;;;;;;4987139;28;20026;-73
2023/07/02 01:36:47;;;;;;;7.40;5.53;;;19.80;99.90;;;;;;4992301;28;20395;-73
2023/07/02 01:39:13;;;;;;;8.95;6.15;;;19.90;99.90;;;;;;4986949;28;20026;-73
2023/07/02 01:41:49;;;;;;;8.95;6.35;;;19.90;99.90;;;;;;4987888;28;20113;-73
2023/07/02 01:44:15;;;;;;;9.05;6.25;;;19.90;99.90;;;;;;4988681;28;20176;-73
2023/07/02 01:46:41;;;;;;;9.45;5.82;;;19.90;99.90;;;;;;4982884;28;20117;-73
2023/07/02 01:49:07;;;;;;;8.57;5.65;;;20.00;99.90;;;;;;4988390;28;20036;-72
2023/07/02 01:51:33;;;;;;;8.77;5.65;;;20.00;99.90;;;;;;4981664;28;20477;-73
2023/07/02 01:54:00;;;;;;;7.93;5.22;;;20.00;99.90;;;;;;4982367;28;20484;-73
2023/07/02 01:56:26;;;;;;;9.63;6.38;;;20.00;99.90;;;;;;4980792;28;20026;-73
2023/07/02 01:58:52;;;;;;;7.95;5.75;;;20.00;99.90;;;;;;4986711;28;20404;-73
2023/07/02 02:01:18;;;;;;;7.70;5.72;;;20.00;99.90;;;;;;4986921;28;20117;-73
2023/07/02 02:03:44;;;;;;;7.75;6.07;;;20.10;99.90;;;;;;4987641;28;20503;-72
2023/07/02 02:06:10;;;;;;;10.60;6.78;;;20.00;99.90;;;;;;4983330;28;20034;-73
2023/07/02 02:08:35;;;;;;;10.40;6.18;;;20.00;99.90;;;;;;4983439;28;20070;-72
2023/07/02 02:11:01;;;;;;;10.00;6.07;;;20.00;99.90;;;;;;4985898;28;20026;-72
2023/07/02 02:13:27;;;;;;;7.75;5.32;;;20.00;99.90;;;;;;4983333;28;20027;-73
2023/07/02 02:15:54;;;;;;;9.60;5.90;;;20.00;99.90;;;;;;4984425;28;20045;-73
2023/07/02 02:18:20;;;;;;;9.07;6.38;;;20.00;99.90;;;;;;4987441;28;20386;-72
2023/07/02 02:20:45;;;;;;;7.65;6.30;;;20.00;99.90;;;;;;4986071;28;20034;-73
2023/07/02 02:23:11;;;;;;;13.88;7.10;;;20.00;99.90;;;;;;4986419;28;20384;-73
2023/07/02 02:25:37;;;;;;;12.18;7.25;;;20.00;99.90;;;;;;4984148;28;20084;-73
2023/07/02 02:28:02;;;;;;;11.02;6.97;;;19.90;99.90;;;;;;4986080;28;20046;-73
2023/07/02 02:30:28;;;;;;;10.23;6.70;;;19.90;99.90;;;;;;4986967;28;20507;-73
2023/07/02 02:32:54;;;;;;;10.63;6.82;;;20.00;99.90;;;;;;4984364;28;20057;-73
2023/07/02 02:35:19;;;;;;;9.85;7.07;;;20.00;99.90;;;;;;4982976;28;20513;-73
2023/07/02 02:37:45;;;;;;;11.23;7.15;;;20.00;99.90;;;;;;4983704;28;20473;-73
2023/07/02 02:40:11;;;;;;;12.75;7.25;;;19.90;99.90;;;;;;4983534;28;20053;-73
2023/07/02 02:42:39;;;;;;;8.23;6.15;;;20.00;99.90;;;;;;4988213;28;20092;-73
2023/07/02 02:45:05;;;;;;;10.25;6.25;;;19.90;99.90;;;;;;4983564;28;20038;-73
2023/07/02 02:47:30;;;;;;;8.27;6.03;;;19.90;99.90;;;;;;4987366;28;20038;-73
2023/07/02 02:49:56;;;;;;;8.77;6.28;;;20.00;99.90;;;;;;4984256;28;20092;-73
2023/07/02 02:52:22;;;;;;;9.55;6.45;;;19.90;99.90;;;;;;4986171;28;20050;-72
2023/07/02 02:54:47;;;;;;;10.07;6.40;;;19.90;99.90;;;;;;4983728;28;20030;-73
2023/07/02 02:57:13;;;;;;;9.80;6.93;;;19.80;99.90;;;;;;4991675;28;20030;-73
2023/07/02 02:59:39;;;;;;;11.57;7.28;;;19.80;99.90;;;;;;4983844;28;20054;-73
2023/07/02 03:02:05;;;;;;;10.02;6.97;;;19.80;99.90;;;;;;4981450;28;20030;-73
2023/07/02 03:04:30;;;;;;;8.90;6.30;;;19.80;99.90;;;;;;4980697;28;20030;-73
2023/07/02 03:06:56;;;;;;;11.45;6.85;;;19.70;99.90;;;;;;4979947;28;20043;-73
2023/07/02 03:09:22;;;;;;;9.95;6.55;;;19.70;99.90;;;;;;4977660;28;20034;-73
2023/07/02 03:11:48;;;;;;;8.93;6.22;;;19.70;99.90;;;;;;4977849;28;20081;-73
2023/07/02 03:14:17;;;;;;;8.73;5.90;;;19.70;99.90;;;;;;4976119;28;20062;-73
2023/07/02 03:16:45;;;;;;;7.95;5.97;;;19.70;99.90;;;;;;4979342;28;20116;-73
2023/07/02 03:19:11;;;;;;;9.68;6.47;;;19.70;99.90;;;;;;4974731;28;20109;-73
2023/07/02 03:21:36;;;;;;;11.57;7.00;;;19.70;99.90;;;;;;4976504;28;20109;-73
2023/07/02 03:24:02;;;;;;;10.45;6.20;;;19.60;99.90;;;;;;4978441;28;20089;-73
2023/07/02 03:26:28;;;;;;;9.15;6.28;;;19.60;99.90;;;;;;4965364;28;20092;-73
2023/07/02 03:28:53;;;;;;;13.32;6.63;;;19.70;99.90;;;;;;4972863;28;20082;-73
2023/07/02 03:31:19;;;;;;;14.52;6.95;;;19.60;99.90;;;;;;4978160;28;20066;-73
2023/07/02 03:33:45;;;;;;;10.32;7.55;;;19.60;99.90;;;;;;4980077;28;20030;-73
2023/07/02 03:36:10;;;;;;;10.60;6.47;;;19.60;99.90;;;;;;4977393;28;20748;-72
2023/07/02 03:38:36;;;;;;;10.70;6.68;;;19.60;99.90;;;;;;4978220;28;20377;-73
2023/07/02 03:41:01;;;;;;;8.35;6.07;;;19.50;99.90;;;;;;4979795;28;20150;-73
2023/07/02 03:43:27;;;;;;;9.25;6.63;;;19.60;99.90;;;;;;4980151;28;20488;-73
2023/07/02 03:45:53;;;;;;;8.70;6.55;;;19.60;99.90;;;;;;4977269;28;20030;-73
2023/07/02 03:48:18;;;;;;;10.07;6.85;;;19.60;99.90;;;;;;4981559;28;20030;-73
2023/07/02 03:50:44;;;;;;;11.10;6.20;;;19.60;99.90;;;;;;4978216;28;20042;-73
2023/07/02 03:53:10;;;;;;;8.80;5.72;;;19.60;99.90;;;;;;4979213;28;20039;-73
2023/07/02 03:55:35;;;;;;;8.38;5.88;;;19.60;99.90;;;;;;4978382;28;20030;-73
2023/07/02 03:58:01;;;;;;;12.77;7.03;;;19.70;99.90;;;;;;4980579;28;20496;-72
2023/07/02 04:00:27;;;;;;;11.15;6.65;;;19.70;99.90;;;;;;4976605;28;20066;-72
2023/07/02 04:02:53;;;;;;;9.65;8.10;;;19.70;99.90;;;;;;4973952;28;20165;-72
2023/07/02 04:05:19;;;;;;;11.32;6.88;;;19.70;99.90;;;;;;4974453;28;20362;-72
2023/07/02 04:07:45;;;;;;;9.20;7.05;;;19.70;99.90;;;;;;4974683;28;20148;-72
2023/07/02 04:10:11;;;;;;;13.80;7.45;;;19.70;99.90;;;;;;4977803;28;20665;-72
2023/07/02 04:12:37;;;;;;;11.07;6.88;;;19.80;99.90;;;;;;4976716;28;20051;-72
2023/07/02 04:15:03;;;;;;;8.75;6.32;;;19.80;99.90;;;;;;4976446;28;20833;-72
2023/07/02 04:17:28;;;;;;;11.55;8.43;;;19.90;99.90;;;;;;4978771;28;20492;-72
2023/07/02 04:19:55;;;;;;;11.35;7.13;;;19.80;99.90;;;;;;4974861;28;20121;-72
2023/07/02 04:22:20;;;;;;;9.57;7.50;;;19.80;99.90;;;;;;4979490;28;20030;-72
2023/07/02 04:24:48;;;;;;;8.70;7.00;;;19.80;99.90;;;;;;4981057;28;20030;-72
2023/07/02 04:27:17;;;;;;;12.45;6.88;;;19.80;99.90;;;;;;4979951;28;20054;-72
2023/07/02 04:29:43;;;;;;;9.77;6.85;;;19.90;99.90;;;;;;4981114;28;20772;-71
2023/07/02 04:32:09;;;;;;;10.48;6.30;;;19.90;99.90;;;;;;4982127;28;20049;-72
2023/07/02 04:34:36;;;;;;;8.73;6.45;;;19.90;99.90;;;;;;4978703;28;20027;-72
2023/07/02 04:37:05;;;;;;;9.00;5.88;;;19.90;99.90;;;;;;4980231;28;20100;-72
2023/07/02 04:39:31;;;;;;;8.65;6.70;;;20.00;99.90;;;;;;4978408;28;20405;-72
2023/07/02 04:41:57;;;;;;;9.75;7.03;;;20.00;99.90;;;;;;4978331;28;20030;-72
2023/07/02 04:44:29;;;;;;;9.63;6.50;;;20.00;99.90;;;;;;4971860;28;20186;-72
2023/07/02 04:46:59;;;;;;;9.57;6.72;;;20.10;99.90;;;;;;4974427;28;20574;-72
2023/07/02 04:49:25;;;;;;;7.80;6.13;;;20.10;99.90;;;;;;4979997;28;20122;-72
2023/07/02 04:51:51;;;;;;;10.07;6.45;;;20.10;99.90;;;;;;4978144;28;20258;-72
2023/07/02 04:54:16;;;;;;;8.68;6.57;;;20.10;99.90;;;;;;4978518;28;20457;-72
2023/07/02 04:56:42;;;;;;;8.52;6.43;;;20.00;99.90;;;;;;4975309;28;20597;-72
2023/07/02 04:59:07;;;;;;;9.20;7.45;;;20.10;99.90;;;;;;4977339;28;20026;-71
2023/07/02 05:01:33;;;;;;;9.70;7.47;;;20.10;99.90;;;;;;4977612;28;20034;-72
2023/07/02 05:03:59;;;;;;;9.18;6.88;;;20.10;99.90;;;;;;4978229;28;20042;-72
2023/07/02 05:06:24;;;;;;;11.32;7.63;;;20.10;99.90;;;;;;4978072;28;20030;-72
2023/07/02 05:08:50;;;;;;;8.80;7.03;;;20.20;99.90;;;;;;4976811;28;20530;-72
2023/07/02 05:11:16;;;;;;;10.40;7.72;;;20.20;99.90;;;;;;4979226;28;20734;-72
2023/07/02 05:13:41;;;;;;;8.88;6.13;;;20.30;99.90;;;;;;4978062;28;20109;-72
2023/07/02 05:16:07;;;;;;;10.93;7.05;;;20.50;99.90;;;;;;4977618;28;20496;-72
2023/07/02 05:18:33;;;;;;;9.82;7.65;;;20.60;99.90;;;;;;4981604;28;20026;-72
2023/07/02 05:20:59;;;;;;;11.18;7.93;;;20.60;99.90;;;;;;4974802;28;20029;-72
2023/07/02 05:23:24;;;;;;;9.00;6.93;;;20.80;99.90;;;;;;4981651;28;20026;-70
2023/07/02 05:25:50;;;;;;;11.77;8.07;;;20.90;99.90;;;;;;4978198;28;20090;-72
2023/07/02 05:28:15;;;;;;;9.77;7.50;;;21.10;99.90;;;;;;4977082;28;20641;-72
2023/07/02 05:30:41;;;;;;;10.45;7.18;;;21.10;99.90;;;;;;4977902;28;20026;-72
2023/07/02 05:33:07;;;;;;;13.55;8.05;;;21.30;99.90;;;;;;4980195;28;20038;-72
2023/07/02 05:35:32;;;;;;;8.93;7.60;;;21.40;99.90;;;;;;4978972;28;20149;-72
2023/07/02 05:37:58;;;;;;;9.98;7.45;;;21.40;99.90;;;;;;4975832;28;20161;-72
2023/07/02 05:40:24;;;;;;;9.35;7.70;;;21.40;99.90;;;;;;4979153;28;20473;-72
2023/07/02 05:42:49;;;;;;;10.07;7.65;;;21.40;99.90;;;;;;4976723;28;20768;-72
2023/07/02 05:45:15;;;;;;;7.45;6.00;;;21.30;99.90;;;;;;4980492;28;20601;-72
2023/07/02 05:47:41;;;;;;;9.20;6.72;;;21.30;99.90;;;;;;4980000;28;20114;-71
2023/07/02 05:50:08;;;;;;;9.75;6.65;;;21.30;99.90;;;;;;4977635;28;20042;-72
2023/07/02 05:52:33;;;;;;;9.00;6.85;;;21.30;99.90;;;;;;4983136;28;20046;-72
2023/07/02 05:54:59;;;;;;;11.30;6.50;;;21.30;99.90;;;;;;4980389;28;20052;-72
2023/07/02 05:57:24;;;;;;;9.07;6.60;;;21.30;99.90;;;;;;4978605;28;20033;-72
2023/07/02 05:59:50;;;;;;;9.88;6.88;;;21.30;99.90;;;;;;4982875;28;20037;-72
2023/07/02 06:02:16;;;;;;;9.55;6.70;;;21.20;99.90;;;;;;4979583;28;20058;-72
2023/07/02 06:04:41;;;;;;;9.60;6.72;;;21.20;99.90;;;;;;4976836;28;20586;-72
2023/07/02 06:07:07;;;;;;;9.25;7.22;;;21.20;99.90;;;;;;4978801;28;20038;-72
2023/07/02 06:09:33;;;;;;;10.73;6.97;;;21.20;99.90;;;;;;4985013;28;20042;-73
2023/07/02 06:11:58;;;;;;;7.97;6.15;;;21.30;99.90;;;;;;4979994;28;20492;-73
2023/07/02 06:14:25;;;;;;;8.55;6.70;;;21.30;99.90;;;;;;4980433;28;20034;-73
2023/07/02 06:16:52;;;;;;;10.65;6.72;;;21.40;99.90;;;;;;4979226;28;20037;-72
2023/07/02 06:19:18;;;;;;;10.40;7.82;;;21.50;99.90;;;;;;4973568;28;20030;-73
2023/07/02 06:21:43;;;;;;;9.48;6.50;;;21.50;99.90;;;;;;4979030;28;20093;-73
2023/07/02 06:24:09;;;;;;;8.20;6.78;;;21.50;99.90;;;;;;4974373;28;20100;-73
2023/07/02 06:26:35;;;;;;;8.73;7.30;;;21.60;99.90;;;;;;4978882;28;20034;-73
2023/07/02 06:29:00;;;;;;;9.70;7.82;;;21.80;99.90;;;;;;4977590;28;20073;-72
2023/07/02 06:31:26;;;;;;;11.68;7.78;;;21.90;99.90;;;;;;4974606;28;20053;-73
2023/07/02 06:33:52;;;;;;;9.02;6.38;;;21.90;99.90;;;;;;4980260;28;20125;-73
2023/07/02 06:36:18;;;;;;;11.05;6.53;;;22.00;99.90;;;;;;4979341;28;20254;-72
2023/07/02 06:38:44;;;;;;;9.05;6.32;;;22.00;99.90;;;;;;4974671;28;20093;-72
2023/07/02 06:41:10;;;;;;;9.55;7.93;;;22.10;99.90;;;;;;4978462;28;20491;-72
2023/07/02 06:43:36;;;;;;;9.73;6.53;;;21.90;99.90;;;;;;4977180;28;20133;-73
2023/07/02 06:46:02;;;;;;;9.48;7.22;;;22.00;99.90;;;;;;4975963;28;20050;-74
2023/07/02 06:48:27;;;;;;;8.52;6.90;;;22.00;99.90;;;;;;4980041;28;20101;-73
2023/07/02 06:50:53;;;;;;;9.98;7.15;;;22.10;99.90;;;;;;4976048;28;20121;-73
2023/07/02 06:53:19;;;;;;;8.13;6.70;;;22.10;99.90;;;;;;4978281;28;20476;-73
2023/07/02 06:55:44;;;;;;;8.60;6.85;;;22.20;99.90;;;;;;4977918;28;20133;-73
2023/07/02 06:58:10;;;;;;;9.63;7.07;;;22.20;99.90;;;;;;4976043;28;20633;-73
2023/07/02 07:00:36;;;;;;;8.95;7.35;;;22.10;99.90;;;;;;4983435;28;20036;-74
2023/07/02 07:03:05;;;;;;;10.05;6.45;;;22.30;99.90;;;;;;4978815;28;20034;-73
2023/07/02 07:05:31;;;;;;;10.50;7.03;;;22.30;99.90;;;;;;4983126;28;20030;-73
2023/07/02 07:07:57;;;;;;;9.13;6.97;;;22.60;99.90;;;;;;4980409;28;20034;-74
2023/07/02 07:10:23;;;;;;;9.10;6.65;;;22.80;99.90;;;;;;4977408;28;20030;-72
2023/07/02 07:12:49;;;;;;;9.20;6.45;;;23.00;99.90;;;;;;4980384;28;20049;-74
2023/07/02 07:15:15;;;;;;;10.63;7.22;;;23.20;99.90;;;;;;4981935;28;20037;-73
2023/07/02 07:17:40;;;;;;;13.60;7.13;;;23.40;99.90;;;;;;4974629;28;20496;-74
2023/07/02 07:20:06;;;;;;;8.57;6.75;;;23.60;99.90;;;;;;4979375;28;20034;-74
2023/07/02 07:22:33;;;;;;;8.05;6.90;;;24.00;99.90;;;;;;4967548;28;20567;-74
2023/07/02 07:24:58;;;;;;;8.30;6.32;;;24.20;99.90;;;;;;4972173;28;20077;-75
2023/07/02 07:27:24;;;;;;;8.27;6.47;;;24.50;99.90;;;;;;4978681;28;20117;-75
2023/07/02 07:29:50;;;;;;;9.52;6.47;;;24.40;99.90;;;;;;4978643;28;20046;-74
2023/07/02 07:32:16;;;;;;;9.88;7.03;;;24.50;99.90;;;;;;4972184;28;20045;-75
2023/07/02 07:34:42;;;;;;;9.15;7.03;;;24.90;99.90;;;;;;4976726;28;20026;-75
2023/07/02 07:37:08;;;;;;;9.05;7.47;;;25.70;99.90;;;;;;4979546;28;20036;-75
2023/07/02 07:39:35;;;;;;;8.02;6.38;;;26.80;99.90;;;;;;4977670;28;20026;-73
2023/07/02 07:42:01;;;;;;;8.90;6.70;;;26.90;99.30;;;;;;4980957;28;20097;-74
2023/07/02 07:44:29;;;;;;;8.65;6.25;;;27.50;98.80;;;;;;4980693;28;20042;-74
2023/07/02 07:46:55;;;;;;;8.85;6.68;;;27.80;97.90;;;;;;4985394;28;20616;-74
2023/07/02 07:49:22;;;;;;;8.65;6.72;;;27.80;97.80;;;;;;4987388;28;20026;-75
2023/07/02 07:51:48;;;;;;;8.68;6.82;;;27.50;97.90;;;;;;4986323;28;20133;-74
2023/07/02 07:54:14;;;;;;;8.55;6.45;;;27.40;98.10;;;;;;4984897;28;20121;-74
2023/07/02 07:56:39;;;;;;;8.13;6.70;;;27.60;98.40;;;;;;4983819;28;20109;-74
2023/07/02 07:59:05;;;;;;;10.57;7.18;;;27.60;98.30;;;;;;4986251;28;20035;-74
2023/07/02 08:01:31;;;;;;;9.00;7.28;;;27.40;98.50;;;;;;4991685;28;20133;-74
2023/07/02 08:03:56;;;;;;;9.75;6.60;;;27.60;98.30;;;;;;4991903;28;20042;-74
2023/07/02 08:06:22;;;;;;;9.32;6.53;;;27.60;98.40;;;;;;4992220;28;20073;-74
2023/07/02 08:08:48;;;;;;;7.95;6.70;;;27.40;98.20;;;;;;4992678;28;20027;-75
2023/07/02 08:11:13;;;;;;;7.95;6.32;;;27.20;98.50;;;;;;4986526;28;20030;-74
2023/07/02 08:13:39;;;;;;;8.73;6.75;;;26.80;99.00;;;;;;4982419;28;20034;-74
2023/07/02 08:16:05;;;;;;;11.10;7.03;;;26.60;99.10;;;;;;4989585;28;20054;-74
2023/07/02 08:18:31;;;;;;;9.63;7.00;;;26.40;99.20;;;;;;4991604;28;20028;-74
2023/07/02 08:20:56;;;;;;;7.97;6.63;;;25.90;99.60;;;;;;4990709;28;20099;-74
2023/07/02 08:23:22;;;;;;;8.68;7.40;;;25.80;99.80;;;;;;4991354;28;20106;-74
2023/07/02 08:25:47;;;;;;;8.55;7.05;;;26.00;99.70;;;;;;4991475;28;20022;-74
2023/07/02 08:28:13;;;;;;;8.43;6.60;;;26.20;99.70;;;;;;4991657;28;20129;-74
2023/07/02 08:30:39;;;;;;;7.32;6.35;;;26.40;99.20;;;;;;4991250;28;20653;-74
2023/07/02 08:33:04;;;;;;;8.63;6.80;;;26.20;99.00;;;;;;4990485;28;20065;-73
2023/07/02 08:35:30;;;;;;;7.95;6.20;;;26.30;99.30;;;;;;4983267;28;20023;-74
2023/07/02 08:37:56;;;;;;;8.23;5.55;;;26.40;99.50;;;;;;4987329;28;20038;-74
2023/07/02 08:40:22;;;;;;;10.07;6.13;;;26.30;99.40;;;;;;4992048;28;20061;-74
2023/07/02 08:42:48;;;;;;;7.45;6.32;;;26.30;99.50;;;;;;4991650;28;20057;-75
2023/07/02 08:45:18;;;;;;;7.65;5.97;;;26.30;99.40;;;;;;4989936;28;20421;-73
2023/07/02 08:47:45;;;;;;;9.20;6.53;;;26.60;99.60;;;;;;4982224;28;20384;-74
2023/07/02 08:50:13;;;;;;;7.88;6.47;;;26.90;99.90;;;;;;4991042;28;20037;-73
2023/07/02 08:52:38;;;;;;;9.27;6.43;;;26.60;99.70;;;;;;4991787;28;20476;-74
2023/07/02 08:55:05;;;;;;;8.13;6.10;;;26.60;99.70;;;;;;4990884;28;20041;-74
2023/07/02 08:57:31;;;;;;;6.85;5.78;;;26.80;99.50;;;;;;4991738;28;20026;-73
2023/07/02 08:59:56;;;;;;;11.15;6.68;;;26.90;99.50;;;;;;4991979;28;20038;-75
2023/07/02 09:02:34;;;;;;;7.68;6.35;;;27.20;99.80;;;;;;4992256;28;20026;-75
2023/07/02 09:05:01;;;;;;;7.65;5.63;;;26.90;99.50;;;;;;4989540;28;20027;-75
2023/07/02 09:07:27;;;;;;;6.80;5.50;;;26.70;99.60;;;;;;4989753;28;20132;-74
2023/07/02 09:09:53;;;;;;;9.05;6.15;;;26.90;98.90;;;;;;4992311;28;20070;-75
2023/07/02 09:12:26;;;;;;;7.70;5.97;;;27.60;99.10;;;;;;4990718;28;20034;-74
2023/07/02 09:15:06;;;;;;;9.40;6.00;;;27.70;98.80;;;;;;4991282;28;20742;-77
2023/07/02 09:17:33;;;;;;;8.02;6.30;;;27.40;99.40;;;;;;4992288;28;20018;-73
2023/07/02 09:20:00;;;;;;;6.97;5.93;;;27.50;98.60;;;;;;4991970;28;20027;-75
2023/07/02 09:22:27;;;;;;;6.88;5.05;;;27.60;98.50;;;;;;4991119;28;20137;-75
2023/07/02 09:24:54;;;;;;;7.00;5.10;;;27.70;97.70;;;;;;4991895;28;20097;-76
2023/07/02 09:27:21;;;;;;;9.85;5.10;;;28.20;97.80;;;;;;4990634;28;20496;-74
2023/07/02 09:29:54;;;;;;;6.55;4.65;;;28.60;96.70;;;;;;4972068;28;20031;-72
2023/07/02 09:32:28;;;;;;;7.82;5.15;;;28.60;96.40;;;;;;4972648;28;20039;-71
2023/07/02 09:34:55;;;;;;;6.68;5.20;;;28.70;96.20;;;;;;4972455;28;20469;-73
2023/07/02 09:37:21;;;;;;;17.52;5.60;;;28.80;96.30;;;;;;4984767;28;20041;-74
2023/07/02 09:39:52;;;;;;;15.70;5.72;;;28.60;95.30;;;;;;4991360;28;20035;-72
2023/07/02 09:42:19;;;;;;;12.20;4.80;;;28.70;96.00;;;;;;4989017;28;20022;-73
2023/07/02 09:44:46;;;;;;;5.55;4.35;;;29.00;95.30;;;;;;4990053;28;20031;-74
2023/07/02 09:47:13;;;;;;;7.80;4.28;;;29.30;94.90;;;;;;4988607;28;20025;-73
2023/07/02 09:49:41;;;;;;;7.97;5.10;;;29.10;95.30;;;;;;4991563;28;20154;-74
2023/07/02 09:52:11;;;;;;;6.55;5.03;;;28.40;96.20;;;;;;4991338;28;20032;-73
2023/07/02 09:54:38;;;;;;;6.88;4.70;;;28.00;96.70;;;;;;4989848;28;20424;-76
2023/07/02 09:57:05;;;;;;;10.07;5.25;;;27.90;96.40;;;;;;4981974;28;20525;-72
2023/07/02 09:59:31;;;;;;;6.28;4.57;;;28.60;96.10;;;;;;4985089;28;20476;-74
2023/07/02 10:01:57;;;;;;;7.25;4.68;;;29.00;95.70;;;;;;4989596;28;20037;-81
2023/07/02 10:04:26;;;;;;;9.55;4.90;;;29.80;95.40;;;;;;4991730;28;20109;-73
2023/07/02 10:06:55;;;;;;;7.10;6.00;;;30.00;95.00;;;;;;4978058;28;20027;-74
2023/07/02 10:09:34;;;;;;;7.50;5.53;;;29.10;95.70;;;;;;4971972;28;20038;-73
2023/07/02 10:12:00;;;;;;;6.60;5.22;;;28.60;95.90;;;;;;4972417;28;20055;-73
2023/07/02 10:14:26;;;;;;;7.30;5.53;;;28.30;96.70;;;;;;4972397;28;20034;-84
2023/07/02 10:16:55;;;;;;;8.70;4.72;;;27.90;96.00;;;;;;4972056;28;20384;-84
2023/07/02 10:19:21;;;;;;;7.82;5.10;;;28.20;95.30;;;;;;4971866;28;20077;-74
2023/07/02 10:22:03;;;;;;;7.72;5.30;;;28.50;96.10;;;;;;4972170;28;20039;-74
2023/07/02 10:24:29;;;;;;;6.05;4.20;;;29.00;96.00;;;;;;4972187;28;20053;-73
2023/07/02 10:26:56;;;;;;;5.47;4.28;;;29.30;94.40;;;;;;4972221;28;20046;-73
2023/07/02 10:29:26;;;;;;;7.40;3.92;;;29.30;93.20;;;;;;4972251;28;20054;-73
2023/07/02 10:31:56;;;;;;;6.90;3.97;;;29.30;93.60;;;;;;4971814;28;20031;-73
2023/07/02 10:34:34;;;;;;;5.40;3.88;;;29.10;93.80;;;;;;4971904;28;20392;-73
2023/07/02 10:37:04;;;;;;;5.93;4.32;;;28.70;93.80;;;;;;4972184;28;20058;-73
2023/07/02 10:39:31;;;;;;;6.70;4.32;;;28.40;94.90;;;;;;4972024;28;20065;-73
2023/07/02 10:42:06;;;;;;;6.10;4.90;;;28.50;95.30;;;;;;4971639;28;20030;-75
2023/07/02 10:44:32;;;;;;;6.20;4.75;;;28.20;95.20;;;;;;4971552;28;20404;-73
2023/07/02 10:46:58;;;;;;;6.72;5.47;;;28.40;96.40;;;;;;4971244;28;20030;-74
2023/07/02 10:49:31;;;;;;;6.68;5.07;;;28.30;95.60;;;;;;4971641;28;20038;-73
2023/07/02 10:51:58;;;;;;;6.82;5.38;;;28.30;96.00;;;;;;4971770;28;20030;-73
2023/07/02 10:54:23;;;;;;;7.25;5.53;;;28.20;96.00;;;;;;4972114;28;20034;-73
2023/07/02 10:56:49;;;;;;;6.88;5.15;;;28.20;96.00;;;;;;4971486;28;20686;-73
2023/07/02 10:59:25;;;;;;;6.38;5.28;;;28.30;95.80;;;;;;4971572;28;20654;-73
2023/07/02 11:01:51;;;;;;;8.20;5.53;;;28.50;95.80;;;;;;4970152;28;20071;-73
2023/07/02 11:04:16;;;;;;;8.82;5.95;;;28.60;95.90;;;;;;4968968;28;20702;-74
2023/07/02 11:06:43;;;;;;;6.78;5.60;;;28.50;95.50;;;;;;4969146;28;20023;-73
2023/07/02 11:09:22;;;;;;;8.73;6.00;;;28.50;95.90;;;;;;4968715;28;20031;-75
2023/07/02 11:11:58;;;;;;;10.18;5.53;;;28.60;95.50;;;;;;4968783;28;20087;-73
2023/07/02 11:14:28;;;;;;;6.72;5.18;;;28.80;95.50;;;;;;4968912;28;20381;-75
2023/07/02 11:17:03;;;;;;;6.68;4.93;;;28.80;95.10;;;;;;4969045;28;20432;-76
2023/07/02 11:19:29;;;;;;;6.30;3.63;;;28.80;94.80;;;;;;4968916;28;20437;-79
2023/07/02 11:21:57;;;;;;;6.90;4.78;;;29.00;94.40;;;;;;4968669;28;20030;-74
2023/07/02 11:24:30;;;;;;;6.78;5.10;;;29.10;94.80;;;;;;4968552;28;20041;-78
2023/07/02 11:26:57;;;;;;;7.88;5.10;;;29.30;94.40;;;;;;4968828;28;20042;-76
2023/07/02 11:29:23;;;;;;;6.75;5.03;;;29.30;94.50;;;;;;4968818;28;20733;-73
2023/07/02 11:31:49;;;;;;;7.95;4.88;;;29.80;94.50;;;;;;4968402;28;20535;-84
2023/07/02 11:34:20;;;;;;;7.32;5.82;;;30.40;94.10;;;;;;4968421;28;20038;-73
2023/07/02 11:36:46;;;;;;;6.15;4.80;;;30.30;93.90;;;;;;4968361;28;20027;-73
2023/07/02 11:39:12;;;;;;;6.43;4.72;;;30.10;93.70;;;;;;4968234;28;20037;-74
2023/07/02 11:41:38;;;;;;;8.00;5.60;;;29.70;93.90;;;;;;4970247;28;20102;-73
2023/07/02 11:44:04;;;;;;;7.18;5.35;;;29.20;94.30;;;;;;4970693;28;20354;-73
2023/07/02 11:46:30;;;;;;;6.80;5.15;;;29.00;94.60;;;;;;4970732;28;20042;-77
2023/07/02 11:48:56;;;;;;;6.80;5.00;;;29.20;95.10;;;;;;4970956;28;20043;-74
2023/07/02 11:51:22;;;;;;;6.60;5.30;;;29.30;95.30;;;;;;4970854;28;20027;-81
2023/07/02 11:53:47;;;;;;;8.10;5.60;;;29.60;95.20;;;;;;4970749;28;20073;-74
2023/07/02 11:56:13;;;;;;;6.70;5.50;;;29.80;95.00;;;;;;4970678;28;20027;-73
2023/07/02 11:58:40;;;;;;;6.18;4.78;;;29.70;94.90;;;;;;4969183;28;20034;-73
2023/07/02 12:01:06;;;;;;;7.38;5.60;;;29.90;95.00;;;;;;4970799;28;20046;-73
2023/07/02 12:03:31;;;;;;;7.50;5.85;;;29.70;95.70;;;;;;4970794;28;20039;-73
2023/07/02 12:05:57;;;;;;;8.93;5.50;;;29.70;95.10;;;;;;4970274;28;20031;-76
2023/07/02 12:08:23;;;;;;;7.15;5.40;;;29.80;95.10;;;;;;4970547;28;20030;-73
2023/07/02 12:10:49;;;;;;;6.80;5.53;;;29.60;95.10;;;;;;4970542;28;20584;-75
2023/07/02 12:13:14;;;;;;;9.75;5.57;;;29.30;95.10;;;;;;4970462;28;20038;-73
2023/07/02 12:15:40;;;;;;;10.13;5.60;;;29.80;95.10;;;;;;4969327;28;20411;-77
2023/07/02 12:18:06;;;;;;;8.50;5.32;;;30.50;94.80;;;;;;4970752;28;20023;-74
2023/07/02 12:20:32;;;;;;;7.00;5.70;;;30.50;94.50;;;;;;4970276;28;20038;-74
2023/07/02 12:22:57;;;;;;;7.25;5.40;;;30.30;94.60;;;;;;4970655;28;20035;-73
2023/07/02 12:25:23;;;;;;;10.30;5.75;;;30.30;94.40;;;;;;4970568;28;20031;-87
2023/07/02 12:27:49;;;;;;;8.45;5.45;;;29.70;94.90;;;;;;4970652;28;20058;-73
2023/07/02 12:30:17;;;;;;;7.25;5.45;;;29.60;94.80;;;;;;4970481;28;20023;-73
2023/07/02 12:32:44;;;;;;;6.88;5.18;;;29.30;95.10;;;;;;4970510;28;20501;-75
2023/07/02 12:35:10;;;;;;;7.65;5.35;;;29.10;95.50;;;;;;4970353;28;20027;-73
2023/07/02 12:37:42;;;;;;;6.68;5.60;;;29.20;95.00;;;;;;4970212;28;20029;-73
2023/07/02 12:40:08;;;;;;;7.30;5.57;;;28.90;95.60;;;;;;4970093;28;20027;-73
2023/07/02 12:42:34;;;;;;;7.45;5.78;;;29.00;95.50;;;;;;4973686;28;20579;-74
2023/07/02 12:44:59;;;;;;;9.80;6.18;;;29.20;95.50;;;;;;4974093;28;20058;-75